createdAt,value
2019-05-02T00:00:16.100Z,9.51
2019-05-02T00:02:47.337Z,9.51
2019-05-02T00:05:18.253Z,9.49
2019-05-02T00:07:47.616Z,9.48
2019-05-02T00:10:19.975Z,9.41
2019-05-02T00:12:51.282Z,9.41
2019-05-02T00:15:21.485Z,9.42
2019-05-02T00:17:50.878Z,9.37
2019-05-02T00:20:21.105Z,9.34
2019-05-02T00:22:52.493Z,9.25
2019-05-02T00:25:22.784Z,9.20
2019-05-02T00:27:52.670Z,9.18
2019-05-02T00:30:22.511Z,9.14
2019-05-02T00:32:53.282Z,9.12
2019-05-02T00:35:23.254Z,9.06
2019-05-02T00:37:52.639Z,8.97
2019-05-02T00:40:25.615Z,8.87
2019-05-02T00:42:58.339Z,8.85
2019-05-02T00:45:25.938Z,8.81
2019-05-02T00:48:12.741Z,8.77
2019-05-02T00:50:45.273Z,8.79
2019-05-02T00:53:13.702Z,8.79
2019-05-02T00:55:45.040Z,8.81
2019-05-02T00:58:14.408Z,8.80
2019-05-02T01:01:02.421Z,8.84
2019-05-02T01:03:33.438Z,8.87
2019-05-02T01:06:04.137Z,8.89
2019-05-02T01:08:35.644Z,8.90
2019-05-02T01:11:04.580Z,8.92
2019-05-02T01:13:33.968Z,8.90
2019-05-02T01:16:03.417Z,8.92
2019-05-02T01:18:37.195Z,8.92
2019-05-02T01:21:04.235Z,9.01
2019-05-02T01:23:33.587Z,9.05
2019-05-02T01:26:02.964Z,9.02
2019-05-02T01:28:53.823Z,9.03
2019-05-02T01:31:36.993Z,9.03
2019-05-02T01:34:08.161Z,9.04
2019-05-02T01:36:41.219Z,9.04
2019-05-02T01:39:13.020Z,9.08
2019-05-02T01:41:42.563Z,9.08
2019-05-02T01:44:12.922Z,9.09
2019-05-02T01:46:42.644Z,9.07
2019-05-02T01:49:12.021Z,9.08
2019-05-02T01:51:47.082Z,9.08
2019-05-02T01:54:13.671Z,9.09
2019-05-02T01:56:43.089Z,9.16
2019-05-02T01:59:12.619Z,9.21
2019-05-02T02:01:41.977Z,9.21
2019-05-02T02:04:16.268Z,9.26
2019-05-02T02:06:45.125Z,9.30
2019-05-02T02:09:14.626Z,9.35
2019-05-02T02:11:44.949Z,9.39
2019-05-02T02:14:18.404Z,9.39
2019-05-02T02:16:46.389Z,9.36
2019-05-02T02:19:26.525Z,9.36
2019-05-02T02:22:02.752Z,9.36
2019-05-02T02:24:33.442Z,9.34
2019-05-02T02:27:02.964Z,9.35
2019-05-02T02:29:32.632Z,9.39
2019-05-02T02:32:02.333Z,9.39
2019-05-02T02:34:32.573Z,9.37
2019-05-02T02:37:09.706Z,9.33
2019-05-02T02:39:34.049Z,9.33
2019-05-02T02:42:03.787Z,9.31
2019-05-02T02:44:41.884Z,9.33
2019-05-02T02:47:18.286Z,9.34
2019-05-02T02:49:42.809Z,9.29
2019-05-02T02:52:12.197Z,9.29
2019-05-02T02:54:43.469Z,9.27
2019-05-02T02:57:20.855Z,9.27
2019-05-02T02:59:45.065Z,9.31
2019-05-02T03:02:14.770Z,9.37
2019-05-02T03:04:46.403Z,9.38
2019-05-02T03:07:24.138Z,9.40
2019-05-02T03:09:48.086Z,9.40
2019-05-02T03:12:22.283Z,9.36
2019-05-02T03:14:53.703Z,9.39
2019-05-02T03:17:26.595Z,9.44
2019-05-02T03:20:01.208Z,9.43
2019-05-02T03:22:25.932Z,9.43
2019-05-02T03:24:55.369Z,9.43
2019-05-02T03:27:29.989Z,9.45
2019-05-02T03:29:55.932Z,9.45
2019-05-02T03:32:33.378Z,9.46
2019-05-02T03:34:56.406Z,9.46
2019-05-02T03:37:25.934Z,9.42
2019-05-02T03:39:58.031Z,9.38
2019-05-02T03:42:26.837Z,9.38
2019-05-02T03:45:03.852Z,9.38
2019-05-02T03:47:27.941Z,9.36
2019-05-02T03:49:57.288Z,9.35
2019-05-02T03:52:26.898Z,9.35
2019-05-02T03:54:56.764Z,9.35
2019-05-02T03:57:33.564Z,9.36
2019-05-02T03:59:57.888Z,9.35
2019-05-02T04:02:27.638Z,9.34
2019-05-02T04:05:00.438Z,9.34
2019-05-02T04:07:39.337Z,9.37
2019-05-02T04:10:02.841Z,9.40
2019-05-02T04:12:33.372Z,9.37
2019-05-02T04:15:03.048Z,9.35
2019-05-02T04:17:35.357Z,9.35
2019-05-02T04:20:09.620Z,9.40
2019-05-02T04:22:42.786Z,9.49
2019-05-02T04:25:08.034Z,9.60
2019-05-02T04:27:37.427Z,9.60
2019-05-02T04:30:11.228Z,9.87
2019-05-02T04:32:42.748Z,9.87
2019-05-02T04:35:09.794Z,9.96
2019-05-02T04:37:41.286Z,10.10
2019-05-02T04:40:12.329Z,10.43
2019-05-02T04:42:41.418Z,10.43
2019-05-02T04:45:21.691Z,10.82
2019-05-02T04:47:42.724Z,10.82
2019-05-02T04:50:18.323Z,10.79
2019-05-02T04:52:48.381Z,10.61
2019-05-02T04:55:22.973Z,10.47
2019-05-02T04:57:50.687Z,10.28
2019-05-02T05:00:21.152Z,10.13
2019-05-02T05:02:53.079Z,10.01
2019-05-02T05:05:25.682Z,9.87
2019-05-02T05:07:53.227Z,9.80
2019-05-02T05:10:22.899Z,9.78
2019-05-02T05:12:52.307Z,9.77
2019-05-02T05:15:35.914Z,9.72
2019-05-02T05:17:53.288Z,9.68
2019-05-02T05:20:23.005Z,9.68
2019-05-02T05:22:52.679Z,9.75
2019-05-02T05:25:37.706Z,9.87
2019-05-02T05:28:09.111Z,9.87
2019-05-02T05:30:45.163Z,9.91
2019-05-02T05:33:10.254Z,9.92
2019-05-02T05:35:43.276Z,9.99
2019-05-02T05:38:11.460Z,9.99
2019-05-02T05:40:41.169Z,9.97
2019-05-02T05:43:14.376Z,9.97
2019-05-02T05:45:53.329Z,9.98
2019-05-02T05:48:13.898Z,9.97
2019-05-02T05:50:43.397Z,9.92
2019-05-02T05:53:17.107Z,9.91
2019-05-02T05:55:47.235Z,9.96
2019-05-02T05:58:18.722Z,9.98
2019-05-02T06:00:53.746Z,10.06
2019-05-02T06:03:18.917Z,10.07
2019-05-02T06:05:48.504Z,10.07
2019-05-02T06:08:19.795Z,10.12
2019-05-02T06:10:50.730Z,10.20
2019-05-02T06:13:20.211Z,10.28
2019-05-02T06:16:01.636Z,10.31
2019-05-02T06:18:20.675Z,10.27
2019-05-02T06:20:50.394Z,10.24
2019-05-02T06:23:20.078Z,10.21
2019-05-02T06:25:49.485Z,10.19
2019-05-02T06:28:18.878Z,10.19
2019-05-02T06:30:48.574Z,10.19
2019-05-02T06:33:18.692Z,10.26
2019-05-02T06:35:51.891Z,10.36
2019-05-02T06:38:21.710Z,10.36
2019-05-02T06:40:50.865Z,10.42
2019-05-02T06:43:20.798Z,10.46
2019-05-02T06:45:51.555Z,10.41
2019-05-02T06:48:21.235Z,10.44
2019-05-02T06:50:50.903Z,10.49
2019-05-02T06:53:20.363Z,10.53
2019-05-02T06:55:49.730Z,10.55
2019-05-02T06:58:19.384Z,10.53
2019-05-02T07:00:57.392Z,10.48
2019-05-02T07:03:20.376Z,10.51
2019-05-02T07:05:49.746Z,10.51
2019-05-02T07:08:19.583Z,10.56
2019-05-02T07:10:49.521Z,10.61
2019-05-02T07:13:19.178Z,10.61
2019-05-02T07:15:50.246Z,10.65
2019-05-02T07:18:21.577Z,10.65
2019-05-02T07:20:51.271Z,10.64
2019-05-02T07:23:20.643Z,10.65
2019-05-02T07:25:50.323Z,10.68
2019-05-02T07:28:19.704Z,10.71
2019-05-02T07:30:49.374Z,10.78
2019-05-02T07:33:18.767Z,10.80
2019-05-02T07:35:48.510Z,10.81
2019-05-02T07:38:20.249Z,10.80
2019-05-02T07:40:52.994Z,10.85
2019-05-02T07:43:22.181Z,10.95
2019-05-02T07:45:52.871Z,10.95
2019-05-02T07:48:22.382Z,11.04
2019-05-02T07:50:52.378Z,11.08
2019-05-02T07:53:22.463Z,11.08
2019-05-02T07:55:51.856Z,11.08
2019-05-02T07:58:21.544Z,11.10
2019-05-02T08:00:50.945Z,11.10
2019-05-02T08:03:20.482Z,11.17
2019-05-02T08:05:54.444Z,11.16
2019-05-02T08:08:24.968Z,11.21
2019-05-02T08:10:53.846Z,11.24
2019-05-02T08:13:23.684Z,11.36
2019-05-02T08:15:53.635Z,11.36
2019-05-02T08:18:25.255Z,11.47
2019-05-02T08:20:56.116Z,11.57
2019-05-02T08:23:27.727Z,11.55
2019-05-02T08:25:56.846Z,11.53
2019-05-02T08:28:31.066Z,11.66
2019-05-02T08:31:01.891Z,11.66
2019-05-02T08:33:34.805Z,11.77
2019-05-02T08:36:03.038Z,11.88
2019-05-02T08:38:32.571Z,11.93
2019-05-02T08:41:01.965Z,11.98
2019-05-02T08:43:31.675Z,12.07
2019-05-02T08:46:01.338Z,12.25
2019-05-02T08:48:30.739Z,12.42
2019-05-02T08:51:00.206Z,12.54
2019-05-02T08:53:29.587Z,12.70
2019-05-02T08:55:59.274Z,12.86
2019-05-02T08:58:28.727Z,12.96
2019-05-02T09:00:58.128Z,13.07
2019-05-02T09:03:27.535Z,13.18
2019-05-02T09:06:05.488Z,13.39
2019-05-02T09:08:28.763Z,13.60
2019-05-02T09:10:58.750Z,13.60
2019-05-02T09:13:29.517Z,13.55
2019-05-02T09:15:59.088Z,13.59
2019-05-02T09:18:35.129Z,13.74
2019-05-02T09:21:02.003Z,13.85
2019-05-02T09:23:35.377Z,13.90
2019-05-02T09:26:02.902Z,13.93
2019-05-02T09:28:32.566Z,13.98
2019-05-02T09:31:06.361Z,14.08
2019-05-02T09:33:36.775Z,13.96
2019-05-02T09:36:04.262Z,13.87
2019-05-02T09:38:33.713Z,13.81
2019-05-02T09:41:15.360Z,13.81
2019-05-02T09:43:39.026Z,13.93
2019-05-02T09:46:07.312Z,14.07
2019-05-02T09:48:36.664Z,14.24
2019-05-02T09:51:15.562Z,14.34
2019-05-02T09:53:37.142Z,14.36
2019-05-02T09:56:06.760Z,14.46
2019-05-02T09:58:36.123Z,14.47
2019-05-02T10:01:13.699Z,14.49
2019-05-02T10:03:43.326Z,14.51
2019-05-02T10:06:17.874Z,14.58
2019-05-02T10:08:46.595Z,14.79
2019-05-02T10:11:16.968Z,14.99
2019-05-02T10:13:46.205Z,15.16
2019-05-02T10:16:18.097Z,15.27
2019-05-02T10:18:46.931Z,15.29
2019-05-02T10:21:17.309Z,15.36
2019-05-02T10:23:51.733Z,15.44
2019-05-02T10:26:20.114Z,15.52
2019-05-02T10:28:53.399Z,15.58
2019-05-02T10:31:22.167Z,15.62
2019-05-02T10:33:52.934Z,15.66
2019-05-02T10:36:24.013Z,15.67
2019-05-02T10:38:59.032Z,15.81
2019-05-02T10:41:25.154Z,15.80
2019-05-02T10:43:57.660Z,15.87
2019-05-02T10:46:32.120Z,15.94
2019-05-02T10:49:01.991Z,16.08
2019-05-02T10:51:34.608Z,16.23
2019-05-02T10:54:05.221Z,16.23
2019-05-02T10:56:34.832Z,16.43
2019-05-02T10:59:04.352Z,16.47
2019-05-02T11:01:35.775Z,16.51
2019-05-02T11:04:06.869Z,16.45
2019-05-02T11:06:37.268Z,16.37
2019-05-02T11:09:09.324Z,16.33
2019-05-02T11:11:39.397Z,16.20
2019-05-02T11:14:11.976Z,16.01
2019-05-02T11:16:46.357Z,15.94
2019-05-02T11:19:17.649Z,15.92
2019-05-02T11:21:56.436Z,15.88
2019-05-02T11:24:18.716Z,15.77
2019-05-02T11:26:48.191Z,15.69
2019-05-02T11:29:17.886Z,15.61
2019-05-02T11:31:47.569Z,15.55
2019-05-02T11:34:16.975Z,15.47
2019-05-02T11:36:46.369Z,15.47
2019-05-02T11:39:24.735Z,15.54
2019-05-02T11:41:47.302Z,15.60
2019-05-02T11:44:16.888Z,15.65
2019-05-02T11:46:47.110Z,15.64
2019-05-02T11:49:16.551Z,15.68
2019-05-02T11:51:51.297Z,15.60
2019-05-02T11:54:18.463Z,15.60
2019-05-02T11:56:49.305Z,15.62
2019-05-02T11:59:22.585Z,15.60
2019-05-02T12:01:59.388Z,15.57
2019-05-02T12:04:24.097Z,15.55
2019-05-02T12:07:00.916Z,15.52
2019-05-02T12:09:24.932Z,15.56
2019-05-02T12:11:56.626Z,15.56
2019-05-02T12:14:27.474Z,15.59
2019-05-02T12:16:56.576Z,15.62
2019-05-02T12:19:26.083Z,15.61
2019-05-02T12:21:56.479Z,15.64
2019-05-02T12:24:26.300Z,15.67
2019-05-02T12:26:56.018Z,15.64
2019-05-02T12:29:25.391Z,15.62
2019-05-02T12:32:15.684Z,15.59
2019-05-02T12:34:46.320Z,15.59
2019-05-02T12:37:16.956Z,15.60
2019-05-02T12:39:46.618Z,15.56
2019-05-02T12:42:16.444Z,15.57
2019-05-02T12:44:46.469Z,15.49
2019-05-02T12:47:16.070Z,15.49
2019-05-02T12:49:46.350Z,15.44
2019-05-02T12:52:15.740Z,15.38
2019-05-02T12:54:46.541Z,15.31
2019-05-02T12:57:16.117Z,15.29
2019-05-02T12:59:46.461Z,15.21
2019-05-02T13:02:17.718Z,15.21
2019-05-02T13:04:47.391Z,15.25
2019-05-02T13:07:17.081Z,15.24
2019-05-02T13:09:46.583Z,15.15
2019-05-02T13:12:22.594Z,15.15
2019-05-02T13:14:52.955Z,15.11
2019-05-02T13:17:22.719Z,15.05
2019-05-02T13:19:56.880Z,14.93
2019-05-02T13:22:25.111Z,14.75
2019-05-02T13:24:56.457Z,14.60
2019-05-02T13:27:33.680Z,14.44
2019-05-02T13:29:58.893Z,14.35
2019-05-02T13:32:32.946Z,14.32
2019-05-02T13:35:04.167Z,14.24
2019-05-02T13:37:33.540Z,14.13
2019-05-02T13:40:05.343Z,14.17
2019-05-02T13:42:34.718Z,14.24
2019-05-02T13:45:17.059Z,14.22
2019-05-02T13:47:46.644Z,14.18
2019-05-02T13:50:16.454Z,14.16
2019-05-02T13:52:53.039Z,14.17
2019-05-02T13:55:19.499Z,14.18
2019-05-02T13:57:49.190Z,14.17
2019-05-02T14:00:23.145Z,14.23
2019-05-02T14:02:52.588Z,14.29
2019-05-02T14:05:22.356Z,14.34
2019-05-02T14:08:12.147Z,14.38
2019-05-02T14:10:43.230Z,14.36
2019-05-02T14:13:12.756Z,14.40
2019-05-02T14:15:42.291Z,14.37
2019-05-02T14:18:12.441Z,14.33
2019-05-02T14:20:42.756Z,14.34
2019-05-02T14:23:13.389Z,14.33
2019-05-02T14:25:42.771Z,14.33
2019-05-02T14:28:13.037Z,14.32
2019-05-02T14:30:46.111Z,14.33
2019-05-02T14:33:15.518Z,14.40
2019-05-02T14:35:46.270Z,14.52
2019-05-02T14:38:16.217Z,14.65
2019-05-02T14:40:55.019Z,14.77
2019-05-02T14:43:29.125Z,14.78
2019-05-02T14:45:58.685Z,14.80
2019-05-02T14:48:40.053Z,14.83
2019-05-02T14:51:01.849Z,14.95
2019-05-02T14:53:32.079Z,15.02
2019-05-02T14:56:06.162Z,15.01
2019-05-02T14:58:37.671Z,14.95
2019-05-02T15:01:05.546Z,14.95
2019-05-02T15:03:35.215Z,14.94
2019-05-02T15:06:06.986Z,15.01
2019-05-02T15:08:36.856Z,15.09
2019-05-02T15:11:07.336Z,15.11
2019-05-02T15:13:40.953Z,15.09
2019-05-02T15:16:12.343Z,14.98
2019-05-02T15:18:41.913Z,14.91
2019-05-02T15:21:16.364Z,14.91
2019-05-02T15:23:43.672Z,14.98
2019-05-02T15:26:14.124Z,15.06
2019-05-02T15:28:43.944Z,15.06
2019-05-02T15:31:18.940Z,15.09
2019-05-02T15:33:48.561Z,15.08
2019-05-02T15:36:18.257Z,14.99
2019-05-02T15:38:48.061Z,14.91
2019-05-02T15:41:17.579Z,14.77
2019-05-02T15:43:49.256Z,14.77
2019-05-02T15:46:23.672Z,14.77
2019-05-02T15:48:49.101Z,14.74
2019-05-02T15:51:18.902Z,14.76
2019-05-02T15:54:04.988Z,14.80
2019-05-02T15:56:24.455Z,14.85
2019-05-02T15:58:58.015Z,14.87
2019-05-02T16:01:36.656Z,14.93
2019-05-02T16:04:05.559Z,14.98
2019-05-02T16:06:34.945Z,15.02
2019-05-02T16:09:06.594Z,15.02
2019-05-02T16:11:37.871Z,14.99
2019-05-02T16:14:07.263Z,14.97
2019-05-02T16:16:43.549Z,14.99
2019-05-02T16:19:08.289Z,14.98
2019-05-02T16:21:48.542Z,14.96
2019-05-02T16:24:22.924Z,14.93
2019-05-02T16:26:56.409Z,14.89
2019-05-02T16:29:28.415Z,14.87
2019-05-02T16:31:59.729Z,14.86
2019-05-02T16:34:33.944Z,14.85
2019-05-02T16:37:16.632Z,14.82
2019-05-02T16:39:49.478Z,14.78
2019-05-02T16:42:15.035Z,14.79
2019-05-02T16:44:44.411Z,14.78
2019-05-02T16:47:14.557Z,14.79
2019-05-02T16:49:47.878Z,14.78
2019-05-02T16:52:16.166Z,14.71
2019-05-02T16:54:45.951Z,14.57
2019-05-02T16:57:17.515Z,14.52
2019-05-02T16:59:47.260Z,14.50
2019-05-02T17:02:17.017Z,14.47
2019-05-02T17:04:47.414Z,14.42
2019-05-02T17:07:18.599Z,14.38
2019-05-02T17:09:52.828Z,14.34
2019-05-02T17:12:22.271Z,14.35
2019-05-02T17:15:09.038Z,14.33
2019-05-02T17:17:38.423Z,14.30
2019-05-02T17:20:13.032Z,14.22
2019-05-02T17:22:41.462Z,14.16
2019-05-02T17:25:12.435Z,14.14
2019-05-02T17:27:44.424Z,14.16
2019-05-02T17:30:14.401Z,14.12
2019-05-02T17:32:44.342Z,14.12
2019-05-02T17:35:14.661Z,14.12
2019-05-02T17:37:48.561Z,14.09
2019-05-02T17:40:16.801Z,14.04
2019-05-02T17:42:47.496Z,13.97
2019-05-02T17:45:17.676Z,13.90
2019-05-02T17:47:48.321Z,13.87
2019-05-02T17:50:36.383Z,13.83
2019-05-02T17:53:07.964Z,13.79
2019-05-02T17:55:40.253Z,13.76
2019-05-02T17:58:12.340Z,13.82
2019-05-02T18:00:47.508Z,13.93
2019-05-02T18:03:15.502Z,13.98
2019-05-02T18:05:45.111Z,14.00
2019-05-02T18:08:14.915Z,13.98
2019-05-02T18:10:44.361Z,13.95
2019-05-02T18:13:13.747Z,13.94
2019-05-02T18:15:43.223Z,13.90
2019-05-02T18:18:12.699Z,13.94
2019-05-02T18:20:46.383Z,13.98
2019-05-02T18:23:13.354Z,13.98
2019-05-02T18:25:42.983Z,13.98
2019-05-02T18:28:15.880Z,13.91
2019-05-02T18:30:43.464Z,13.89
2019-05-02T18:33:13.226Z,13.92
2019-05-02T18:35:46.798Z,13.95
2019-05-02T18:38:15.923Z,13.93
2019-05-02T18:40:44.966Z,13.93
2019-05-02T18:43:14.362Z,13.91
2019-05-02T18:45:43.758Z,13.97
2019-05-02T18:48:13.248Z,13.94
2019-05-02T18:50:46.942Z,13.93
2019-05-02T18:53:18.713Z,13.90
2019-05-02T18:55:47.651Z,13.84
2019-05-02T18:58:17.280Z,13.77
2019-05-02T19:00:47.878Z,13.70
2019-05-02T19:03:17.462Z,13.65
2019-05-02T19:05:51.498Z,13.62
2019-05-02T19:08:30.674Z,13.54
2019-05-02T19:11:02.463Z,13.48
2019-05-02T19:13:22.349Z,13.41
2019-05-02T19:15:53.458Z,13.35
2019-05-02T19:18:22.907Z,13.27
2019-05-02T19:20:57.554Z,13.22
2019-05-02T19:23:27.151Z,13.21
2019-05-02T19:25:56.827Z,13.13
2019-05-02T19:28:29.083Z,13.10
2019-05-02T19:31:03.085Z,13.08
2019-05-02T19:33:31.959Z,12.98
2019-05-02T19:36:02.785Z,12.92
2019-05-02T19:38:34.787Z,12.83
2019-05-02T19:41:08.761Z,12.75
2019-05-02T19:43:40.490Z,12.67
2019-05-02T19:46:07.150Z,12.63
2019-05-02T19:48:37.403Z,12.57
2019-05-02T19:51:12.694Z,12.52
2019-05-02T19:53:40.198Z,12.44
2019-05-02T19:56:09.857Z,12.35
2019-05-02T19:58:42.716Z,12.28
2019-05-02T20:01:10.315Z,12.24
2019-05-02T20:03:40.045Z,12.16
2019-05-02T20:06:09.443Z,12.08
2019-05-02T20:08:38.967Z,12.01
2019-05-02T20:11:08.646Z,11.92
2019-05-02T20:13:38.313Z,11.87
2019-05-02T20:16:26.216Z,11.80
2019-05-02T20:18:55.916Z,11.70
2019-05-02T20:21:29.646Z,11.62
2019-05-02T20:24:01.424Z,11.53
2019-05-02T20:26:32.557Z,11.43
2019-05-02T20:29:02.297Z,11.38
2019-05-02T20:31:32.257Z,11.36
2019-05-02T20:34:04.785Z,11.34
2019-05-02T20:36:34.321Z,11.27
2019-05-02T20:39:06.968Z,11.23
2019-05-02T20:41:36.937Z,11.22
2019-05-02T20:44:06.288Z,11.15
2019-05-02T20:46:35.969Z,11.05
2019-05-02T20:49:05.399Z,11.00
2019-05-02T20:51:35.072Z,10.94
2019-05-02T20:54:04.675Z,10.91
2019-05-02T20:56:34.115Z,10.85
2019-05-02T20:59:03.567Z,10.82
2019-05-02T21:01:33.113Z,10.81
2019-05-02T21:04:02.878Z,10.81
2019-05-02T21:06:40.669Z,10.82
2019-05-02T21:09:10.859Z,10.86
2019-05-02T21:11:41.933Z,10.85
2019-05-02T21:14:12.303Z,10.83
2019-05-02T21:16:42.026Z,10.86
2019-05-02T21:19:12.392Z,10.88
2019-05-02T21:21:42.683Z,10.89
2019-05-02T21:24:12.451Z,10.90
2019-05-02T21:26:42.231Z,10.95
2019-05-02T21:29:15.064Z,10.97
2019-05-02T21:31:44.786Z,10.98
2019-05-02T21:34:14.219Z,10.98
2019-05-02T21:36:43.581Z,11.00
2019-05-02T21:39:13.599Z,11.02
2019-05-02T21:41:43.284Z,11.02
2019-05-02T21:44:13.291Z,11.03
2019-05-02T21:46:42.716Z,11.03
2019-05-02T21:49:13.923Z,11.03
2019-05-02T21:51:47.957Z,11.01
2019-05-02T21:54:18.981Z,10.96
2019-05-02T21:56:52.107Z,10.89
2019-05-02T21:59:22.481Z,10.81
2019-05-02T22:01:53.936Z,10.73
2019-05-02T22:04:23.366Z,10.65
2019-05-02T22:06:52.743Z,10.61
2019-05-02T22:09:23.069Z,10.64
2019-05-02T22:11:52.637Z,10.66
2019-05-02T22:14:23.327Z,10.65
2019-05-02T22:16:53.164Z,10.62
2019-05-02T22:19:22.570Z,10.57
2019-05-02T22:21:52.630Z,10.53
2019-05-02T22:24:22.216Z,10.49
2019-05-02T22:26:52.617Z,10.43
2019-05-02T22:29:22.397Z,10.41
2019-05-02T22:31:54.428Z,10.38
2019-05-02T22:34:23.116Z,10.33
2019-05-02T22:36:54.356Z,10.34
2019-05-02T22:39:31.783Z,10.34
2019-05-02T22:42:04.343Z,10.37
2019-05-02T22:44:32.662Z,10.37
2019-05-02T22:47:02.297Z,10.29
2019-05-02T22:49:31.979Z,10.29
2019-05-02T22:52:01.618Z,10.33
2019-05-02T22:54:33.776Z,10.18
2019-05-02T22:57:02.706Z,10.18
2019-05-02T22:59:32.380Z,10.17
2019-05-02T23:02:02.733Z,10.13
2019-05-02T23:04:32.700Z,10.11
2019-05-02T23:07:02.546Z,10.09
2019-05-02T23:09:31.847Z,10.08
2019-05-02T23:12:02.827Z,10.05
2019-05-02T23:14:32.699Z,10.04
2019-05-02T23:17:02.486Z,10.06
2019-05-02T23:19:31.930Z,10.11
2019-05-02T23:22:02.082Z,10.11
2019-05-02T23:24:39.115Z,10.09
2019-05-02T23:27:22.826Z,10.15
2019-05-02T23:29:52.477Z,10.15
2019-05-02T23:32:23.618Z,10.20
2019-05-02T23:34:53.419Z,10.18
2019-05-02T23:37:22.795Z,10.14
2019-05-02T23:39:52.472Z,10.11
2019-05-02T23:42:22.802Z,10.11
2019-05-02T23:44:52.476Z,10.10
2019-05-02T23:47:22.472Z,10.05
2019-05-02T23:49:52.160Z,10.02
2019-05-02T23:52:22.455Z,10.00
2019-05-02T23:54:52.532Z,10.03
2019-05-02T23:57:23.401Z,10.05
2019-05-02T23:59:52.751Z,10.03
